Time;durP1;ratioP1;P1;durP2;ratioP2;P2;SDS_P1;SDS_P2;PMS_P1;PMS_P2;Temp;Humidity;BMP_temperature;BMP_pressure;BME280_temperature;BME280_humidity;BME280_pressure;Samples;Min_cycle;Max_cycle;Signal;HPM_P1;HPM_P2
2023/05/15 00:02:11;;;;;;;6.73;6.23;;;15.70;78.50;;;;;;5038743;28;20197;-89
2023/05/15 00:04:37;;;;;;;6.80;6.30;;;15.40;80.20;;;;;;5038786;28;20205;-89
2023/05/15 00:07:03;;;;;;;6.80;6.20;;;15.30;80.80;;;;;;5039001;28;20393;-89
2023/05/15 00:09:29;;;;;;;6.67;6.13;;;15.40;80.30;;;;;;5037266;28;20240;-89
2023/05/15 00:11:55;;;;;;;6.90;6.30;;;15.40;80.00;;;;;;5037226;28;20188;-89
2023/05/15 00:14:21;;;;;;;7.07;6.57;;;15.40;80.20;;;;;;5037799;28;20220;-89
2023/05/15 00:16:46;;;;;;;8.20;6.53;;;15.40;80.00;;;;;;5036849;28;20184;-88
2023/05/15 00:19:13;;;;;;;6.33;5.83;;;15.50;79.60;;;;;;5037861;28;20186;-90
2023/05/15 00:21:38;;;;;;;7.07;6.40;;;15.50;79.40;;;;;;5037153;28;20192;-91
2023/05/15 00:24:04;;;;;;;6.40;5.80;;;15.40;79.20;;;;;;5036264;28;20425;-89
2023/05/15 00:26:30;;;;;;;6.27;5.77;;;15.50;79.10;;;;;;5036487;28;20724;-92
2023/05/15 00:28:56;;;;;;;6.53;6.03;;;15.50;79.00;;;;;;5037082;28;20211;-88
2023/05/15 00:31:22;;;;;;;7.00;6.40;;;15.50;79.00;;;;;;5038068;28;20188;-90
2023/05/15 00:33:48;;;;;;;6.40;6.00;;;15.50;78.80;;;;;;5038771;28;20227;-90
2023/05/15 00:36:13;;;;;;;6.70;6.20;;;15.40;79.20;;;;;;5039953;28;20205;-88
2023/05/15 00:38:39;;;;;;;7.20;6.70;;;15.30;79.70;;;;;;5040940;28;20201;-90
2023/05/15 00:41:06;;;;;;;6.97;6.40;;;15.40;79.30;;;;;;5039034;28;20188;-89
2023/05/15 00:43:33;;;;;;;6.73;6.17;;;15.50;79.10;;;;;;5039700;28;20227;-88
2023/05/15 00:46:00;;;;;;;6.60;6.10;;;15.60;78.40;;;;;;5018925;28;20208;-90
2023/05/15 00:48:27;;;;;;;7.10;6.60;;;15.60;78.30;;;;;;5018401;28;20188;-89
2023/05/15 00:50:56;;;;;;;7.17;6.60;;;15.60;78.10;;;;;;5018080;28;20178;-89
2023/05/15 00:53:22;;;;;;;6.70;6.20;;;15.40;78.60;;;;;;5018171;28;20571;-89
2023/05/15 00:55:49;;;;;;;7.03;6.53;;;15.20;79.60;;;;;;5018613;28;20650;-89
2023/05/15 00:58:17;;;;;;;7.00;6.50;;;15.20;79.90;;;;;;5036589;28;20177;-90
2023/05/15 01:00:44;;;;;;;6.60;6.00;;;15.30;80.10;;;;;;5040183;28;20183;-89
2023/05/15 01:03:10;;;;;;;6.17;5.77;;;15.30;79.80;;;;;;5039574;28;20208;-89
2023/05/15 01:05:35;;;;;;;6.70;6.20;;;15.30;80.00;;;;;;5039430;28;20190;-89
2023/05/15 01:08:22;;;;;;;6.80;6.30;;;15.30;80.50;;;;;;5040112;28;20200;-89
2023/05/15 01:10:49;;;;;;;7.10;6.47;;;15.10;80.90;;;;;;5038493;28;20175;-89
2023/05/15 01:13:15;;;;;;;6.93;6.43;;;15.00;81.30;;;;;;5042563;28;20735;-88
2023/05/15 01:15:42;;;;;;;6.70;6.20;;;15.10;81.40;;;;;;5043656;28;20197;-88
2023/05/15 01:18:07;;;;;;;7.20;6.70;;;15.10;81.80;;;;;;5025666;28;20183;-89
2023/05/15 01:20:46;;;;;;;7.93;7.10;;;15.20;81.30;;;;;;5042491;28;20214;-89
2023/05/15 01:23:22;;;;;;;6.80;6.30;;;15.20;81.00;;;;;;5043052;28;20203;-89
2023/05/15 01:26:00;;;;;;;7.03;6.53;;;15.10;81.40;;;;;;5039789;28;20285;-88
2023/05/15 01:28:36;;;;;;;7.50;6.57;;;15.20;81.50;;;;;;5036767;28;20610;-89
2023/05/15 01:31:09;;;;;;;7.07;6.47;;;15.30;80.50;;;;;;5043895;28;20185;-89
2023/05/15 01:33:40;;;;;;;6.77;6.27;;;15.50;80.00;;;;;;5044214;28;20381;-89
2023/05/15 01:36:11;;;;;;;6.80;6.30;;;15.50;79.40;;;;;;5027186;28;20527;-88
2023/05/15 01:39:04;;;;;;;7.70;7.00;;;15.50;79.80;;;;;;5044267;28;20198;-90
2023/05/15 01:41:42;;;;;;;6.70;6.10;;;15.50;79.10;;;;;;5042716;28;20190;-88
2023/05/15 01:44:21;;;;;;;6.93;6.43;;;15.50;79.50;;;;;;5045185;28;20223;-89
2023/05/15 01:46:53;;;;;;;7.43;6.67;;;15.30;80.40;;;;;;5044986;28;20171;-90
2023/05/15 01:49:25;;;;;;;7.80;7.10;;;15.40;80.10;;;;;;5045808;28;20338;-89
2023/05/15 01:52:04;;;;;;;6.70;6.20;;;15.30;80.10;;;;;;5046165;28;20249;-87
2023/05/15 01:54:30;;;;;;;6.80;6.27;;;15.30;80.20;;;;;;5044522;28;20217;-88
2023/05/15 01:56:57;;;;;;;6.90;6.30;;;15.20;81.10;;;;;;5044682;28;20177;-90
2023/05/15 01:59:25;;;;;;;7.00;6.30;;;15.10;81.40;;;;;;5046069;28;20229;-89
2023/05/15 02:01:51;;;;;;;7.27;6.57;;;15.10;81.20;;;;;;5045525;28;20719;-88
2023/05/15 02:04:18;;;;;;;7.20;6.60;;;15.10;81.50;;;;;;5055121;28;20202;-89
2023/05/15 02:06:46;;;;;;;7.37;6.83;;;15.10;81.50;;;;;;5056471;28;20198;-90
2023/05/15 02:09:13;;;;;;;7.37;6.67;;;15.20;81.00;;;;;;5045166;28;20199;-89
2023/05/15 02:11:39;;;;;;;7.03;6.53;;;15.20;81.30;;;;;;5043420;28;20193;-92
2023/05/15 02:14:06;;;;;;;7.40;6.80;;;15.10;81.90;;;;;;5042355;28;20696;-90
2023/05/15 02:16:31;;;;;;;6.90;6.40;;;15.10;81.10;;;;;;5041967;28;20588;-89
2023/05/15 02:18:57;;;;;;;7.90;7.33;;;15.10;81.10;;;;;;5042624;28;20174;-89
2023/05/15 02:21:23;;;;;;;7.10;6.60;;;14.90;81.80;;;;;;5044787;28;20194;-89
2023/05/15 02:23:48;;;;;;;7.70;7.10;;;14.90;81.80;;;;;;5048555;28;20205;-89
2023/05/15 02:26:50;;;;;;;7.73;7.07;;;15.00;81.40;;;;;;5040809;28;20189;-90
2023/05/15 02:29:36;;;;;;;7.30;6.73;;;14.90;82.40;;;;;;5042902;28;20200;-89
2023/05/15 02:32:04;;;;;;;7.17;6.57;;;14.80;82.60;;;;;;5044640;28;20235;-89
2023/05/15 02:34:58;;;;;;;7.30;6.80;;;14.80;82.80;;;;;;5040050;28;20217;-90
2023/05/15 02:37:29;;;;;;;7.90;7.30;;;14.80;82.80;;;;;;5040351;28;20177;-90
2023/05/15 02:39:58;;;;;;;7.60;7.00;;;14.80;83.00;;;;;;5039848;28;20188;-89
2023/05/15 02:42:25;;;;;;;7.50;6.90;;;14.80;83.20;;;;;;5039972;28;20213;-90
2023/05/15 02:44:53;;;;;;;7.70;7.10;;;14.70;83.50;;;;;;5029038;28;20198;-89
2023/05/15 02:47:20;;;;;;;7.17;6.67;;;14.70;82.80;;;;;;5019971;28;20188;-88
2023/05/15 02:49:46;;;;;;;7.60;7.00;;;14.60;82.00;;;;;;5019815;28;20229;-89
2023/05/15 02:52:12;;;;;;;7.40;6.90;;;14.30;84.40;;;;;;5036019;28;20218;-89
2023/05/15 02:54:38;;;;;;;7.50;6.73;;;14.30;84.40;;;;;;5038688;28;20263;-89
2023/05/15 02:57:04;;;;;;;7.17;6.67;;;14.40;84.30;;;;;;5038435;28;20204;-89
2023/05/15 02:59:30;;;;;;;7.70;6.90;;;14.50;83.00;;;;;;5039202;28;20207;-89
2023/05/15 03:01:55;;;;;;;7.77;7.10;;;14.60;83.20;;;;;;5021572;28;20195;-89
2023/05/15 03:04:21;;;;;;;7.70;7.00;;;14.40;84.30;;;;;;5037864;28;20228;-89
2023/05/15 03:06:46;;;;;;;7.60;6.90;;;14.40;84.70;;;;;;5037686;28;20190;-88
2023/05/15 03:09:12;;;;;;;7.90;7.20;;;14.40;84.20;;;;;;5020191;28;20215;-88
2023/05/15 03:11:38;;;;;;;7.50;6.87;;;14.30;84.90;;;;;;5038515;28;20231;-89
2023/05/15 03:14:03;;;;;;;6.67;6.17;;;14.20;86.10;;;;;;5039041;28;20234;-88
2023/05/15 03:16:29;;;;;;;7.23;6.73;;;14.20;86.30;;;;;;5038962;28;20184;-90
2023/05/15 03:18:54;;;;;;;7.30;6.80;;;14.20;86.60;;;;;;5038290;28;20200;-88
2023/05/15 03:21:20;;;;;;;7.70;7.10;;;14.20;86.50;;;;;;5038970;28;20201;-90
2023/05/15 03:23:46;;;;;;;8.27;6.70;;;13.90;88.10;;;;;;5039350;28;20195;-89
2023/05/15 03:26:11;;;;;;;7.30;6.80;;;13.90;89.00;;;;;;5039775;28;20189;-90
2023/05/15 03:28:37;;;;;;;7.77;7.17;;;13.90;89.30;;;;;;5039820;28;20184;-90
2023/05/15 03:31:03;;;;;;;8.63;7.70;;;13.80;90.10;;;;;;5039561;28;20199;-88
2023/05/15 03:33:30;;;;;;;8.27;7.57;;;13.80;90.20;;;;;;5038936;28;20211;-91
2023/05/15 03:35:56;;;;;;;7.57;7.07;;;13.80;90.30;;;;;;5037986;28;20655;-90
2023/05/15 03:38:21;;;;;;;7.57;6.83;;;13.70;90.50;;;;;;5020724;28;20253;-89
2023/05/15 03:40:47;;;;;;;8.10;7.50;;;13.70;90.90;;;;;;5039008;28;20185;-88
2023/05/15 03:43:13;;;;;;;7.87;7.27;;;13.70;91.20;;;;;;5038821;28;20441;-90
2023/05/15 03:45:38;;;;;;;8.10;7.40;;;13.70;90.10;;;;;;5021299;28;20191;-89
2023/05/15 03:48:04;;;;;;;7.70;7.00;;;13.80;90.30;;;;;;5024439;28;20320;-90
2023/05/15 03:50:30;;;;;;;7.10;6.60;;;13.80;89.60;;;;;;5036347;28;20209;-88
2023/05/15 03:52:56;;;;;;;8.00;7.40;;;13.90;88.40;;;;;;5036018;28;20183;-90
2023/05/15 03:55:21;;;;;;;8.33;7.67;;;13.90;88.00;;;;;;5036568;28;20172;-90
2023/05/15 03:57:47;;;;;;;7.70;7.10;;;14.00;87.50;;;;;;5037146;28;20196;-89
2023/05/15 04:00:13;;;;;;;7.37;6.87;;;14.00;87.50;;;;;;5038750;28;20197;-88
2023/05/15 04:02:39;;;;;;;8.30;7.63;;;14.10;87.10;;;;;;5037403;28;20711;-89
2023/05/15 04:05:06;;;;;;;7.43;6.73;;;14.00;87.50;;;;;;5036367;28;20200;-89
2023/05/15 04:07:32;;;;;;;6.73;6.23;;;14.00;86.50;;;;;;5036383;28;20200;-90
2023/05/15 04:10:00;;;;;;;7.70;7.10;;;13.90;86.50;;;;;;5036613;28;20216;-89
2023/05/15 04:12:31;;;;;;;7.87;7.27;;;13.70;87.80;;;;;;5036025;28;20681;-90
2023/05/15 04:15:11;;;;;;;7.70;7.10;;;13.70;88.30;;;;;;5037026;28;20282;-89
2023/05/15 04:17:37;;;;;;;7.13;6.50;;;13.60;89.10;;;;;;5037086;28;20607;-89
2023/05/15 04:20:04;;;;;;;7.97;7.27;;;13.60;89.80;;;;;;5036932;28;20677;-88
2023/05/15 04:22:29;;;;;;;7.77;7.17;;;13.70;89.50;;;;;;5037448;28;20189;-90
2023/05/15 04:24:55;;;;;;;9.97;8.17;;;13.70;89.10;;;;;;5036195;28;20273;-90
2023/05/15 04:27:21;;;;;;;8.13;7.47;;;13.80;88.30;;;;;;5020000;28;20184;-89
2023/05/15 04:29:47;;;;;;;8.10;7.40;;;13.70;88.80;;;;;;5038138;28;20234;-89
2023/05/15 04:32:12;;;;;;;11.90;7.80;;;13.80;88.70;;;;;;5037055;28;20549;-89
2023/05/15 04:34:39;;;;;;;9.77;7.83;;;13.70;89.60;;;;;;5037106;28;20190;-90
2023/05/15 04:37:05;;;;;;;7.10;6.57;;;13.70;89.60;;;;;;5035932;28;20255;-89
2023/05/15 04:39:31;;;;;;;8.30;7.60;;;13.50;90.40;;;;;;5035523;28;20612;-90
2023/05/15 04:41:56;;;;;;;8.13;7.43;;;13.50;90.20;;;;;;5035893;28;20180;-89
2023/05/15 04:44:22;;;;;;;8.17;7.47;;;13.70;89.50;;;;;;5031581;28;20316;-89
2023/05/15 04:46:48;;;;;;;8.10;7.50;;;13.70;89.30;;;;;;5016567;28;20195;-87
2023/05/15 04:49:13;;;;;;;22.53;9.00;;;13.70;89.20;;;;;;5034023;28;20514;-89
2023/05/15 04:51:40;;;;;;;10.13;7.63;;;13.60;89.90;;;;;;5034900;28;20271;-89
2023/05/15 04:54:06;;;;;;;11.93;8.17;;;13.70;89.70;;;;;;5035887;28;20193;-90
2023/05/15 04:56:32;;;;;;;9.30;8.37;;;13.70;89.50;;;;;;5034603;28;20173;-88
2023/05/15 04:58:58;;;;;;;8.97;8.07;;;13.70;89.50;;;;;;5017982;28;20264;-89
2023/05/15 05:01:24;;;;;;;8.17;7.43;;;13.70;89.80;;;;;;5028267;28;20656;-89
2023/05/15 05:03:50;;;;;;;8.70;7.93;;;13.70;89.30;;;;;;5033332;28;20291;-89
2023/05/15 05:06:19;;;;;;;9.60;8.17;;;13.80;89.00;;;;;;5038009;28;20230;-89
2023/05/15 05:08:45;;;;;;;8.80;8.20;;;13.80;88.70;;;;;;5037049;28;20423;-90
2023/05/15 05:11:17;;;;;;;12.93;8.57;;;13.80;88.80;;;;;;5033827;28;20687;-90
2023/05/15 05:13:42;;;;;;;9.53;8.30;;;13.80;88.50;;;;;;5017573;28;20198;-87
2023/05/15 05:16:08;;;;;;;11.47;8.40;;;13.90;89.20;;;;;;5036910;28;20275;-89
2023/05/15 05:18:33;;;;;;;12.80;8.17;;;13.90;90.20;;;;;;5036420;28;20188;-89
2023/05/15 05:21:00;;;;;;;8.10;7.50;;;13.90;90.60;;;;;;5035714;28;20707;-88
2023/05/15 05:23:26;;;;;;;8.40;7.80;;;13.90;90.80;;;;;;5001576;28;20363;-88
2023/05/15 05:25:52;;;;;;;8.77;8.07;;;13.90;92.00;;;;;;5016903;28;20180;-88
2023/05/15 05:28:17;;;;;;;11.30;8.50;;;13.90;92.50;;;;;;5017037;28;20248;-88
2023/05/15 05:30:47;;;;;;;8.70;8.00;;;13.80;93.70;;;;;;5015529;28;20217;-90
2023/05/15 05:33:13;;;;;;;8.93;8.23;;;13.60;95.10;;;;;;5022216;28;20243;-89
2023/05/15 05:35:39;;;;;;;9.23;8.53;;;13.50;96.90;;;;;;5020532;28;20188;-89
2023/05/15 05:38:04;;;;;;;7.87;7.17;;;13.60;96.90;;;;;;5036751;28;20260;-89
2023/05/15 05:40:30;;;;;;;8.30;7.60;;;13.60;97.20;;;;;;5036553;28;20287;-89
2023/05/15 05:43:00;;;;;;;8.37;7.67;;;13.70;97.50;;;;;;5033882;28;20274;-90
2023/05/15 05:45:26;;;;;;;8.53;7.90;;;13.80;96.50;;;;;;5034074;28;20185;-90
2023/05/15 05:47:51;;;;;;;8.30;7.63;;;13.70;98.10;;;;;;5033409;28;20560;-89
2023/05/15 05:50:17;;;;;;;8.07;7.40;;;13.70;98.80;;;;;;5033706;28;20360;-90
2023/05/15 05:52:42;;;;;;;7.40;6.67;;;13.90;98.20;;;;;;5033620;28;20185;-88
2023/05/15 05:55:08;;;;;;;7.63;7.03;;;13.80;97.50;;;;;;5032469;28;20596;-90
2023/05/15 05:57:34;;;;;;;7.50;6.90;;;13.70;97.80;;;;;;5033805;28;20683;-88
2023/05/15 06:00:00;;;;;;;7.37;6.77;;;13.80;98.40;;;;;;5038392;28;20241;-89
2023/05/15 06:02:25;;;;;;;7.40;6.90;;;13.70;98.90;;;;;;5040788;28;20200;-90
2023/05/15 06:04:51;;;;;;;7.50;6.90;;;13.90;98.20;;;;;;5040214;28;20205;-89
2023/05/15 06:07:17;;;;;;;6.63;6.13;;;13.80;98.80;;;;;;5038267;28;20228;-89
2023/05/15 06:09:44;;;;;;;7.63;7.03;;;14.00;98.50;;;;;;5038035;28;20197;-90
2023/05/15 06:12:10;;;;;;;8.10;6.73;;;14.00;97.00;;;;;;5039220;28;20667;-89
2023/05/15 06:14:36;;;;;;;7.90;7.20;;;13.80;98.30;;;;;;5038183;28;20210;-88
2023/05/15 06:17:01;;;;;;;7.03;6.50;;;13.80;97.80;;;;;;5039620;28;20625;-89
2023/05/15 06:19:28;;;;;;;6.77;6.27;;;13.80;97.50;;;;;;5038750;28;20192;-90
2023/05/15 06:21:53;;;;;;;7.80;7.10;;;13.80;99.10;;;;;;5036317;28;20190;-89
2023/05/15 06:24:19;;;;;;;7.43;6.73;;;13.80;98.30;;;;;;5036563;28;20613;-89
2023/05/15 06:26:45;;;;;;;7.93;7.17;;;13.80;98.90;;;;;;5036534;28;20189;-89
2023/05/15 06:29:10;;;;;;;7.00;6.40;;;13.90;98.10;;;;;;5037882;28;20219;-88
2023/05/15 06:31:36;;;;;;;8.03;7.37;;;13.90;97.80;;;;;;5038599;28;20186;-89
2023/05/15 06:34:01;;;;;;;7.43;6.80;;;14.00;97.70;;;;;;5038591;28;20224;-88
2023/05/15 06:36:27;;;;;;;7.27;6.57;;;14.00;96.10;;;;;;5037978;28;20613;-88
2023/05/15 06:38:53;;;;;;;7.07;6.57;;;14.00;97.80;;;;;;5036077;28;20206;-88
2023/05/15 06:41:18;;;;;;;7.67;6.97;;;14.20;96.80;;;;;;5036006;28;20252;-88
2023/05/15 06:43:44;;;;;;;6.83;6.33;;;14.20;94.40;;;;;;5036296;28;20376;-87
2023/05/15 06:46:10;;;;;;;6.80;6.30;;;14.10;95.50;;;;;;5034604;28;20547;-87
2023/05/15 06:48:35;;;;;;;7.53;6.93;;;14.30;93.60;;;;;;5017340;28;20280;-88
2023/05/15 06:51:01;;;;;;;7.13;6.63;;;14.30;93.50;;;;;;5034503;28;20184;-89
2023/05/15 06:53:28;;;;;;;7.40;6.80;;;14.40;94.70;;;;;;5034448;28;20234;-90
2023/05/15 06:55:54;;;;;;;7.17;6.57;;;14.40;92.80;;;;;;5036239;28;20201;-87
2023/05/15 06:58:19;;;;;;;7.10;6.50;;;14.50;92.50;;;;;;5035942;28;20181;-88
2023/05/15 07:00:45;;;;;;;6.30;5.73;;;14.50;94.00;;;;;;5037226;28;20191;-87
2023/05/15 07:03:13;;;;;;;6.87;6.30;;;14.50;91.60;;;;;;5037601;28;20646;-86
2023/05/15 07:05:38;;;;;;;6.30;5.80;;;14.70;91.00;;;;;;5020038;28;20554;-88
2023/05/15 07:08:04;;;;;;;6.43;5.90;;;14.70;94.00;;;;;;5038728;28;20185;-88
2023/05/15 07:10:30;;;;;;;7.40;6.70;;;14.70;92.00;;;;;;5036892;28;20682;-88
2023/05/15 07:12:56;;;;;;;6.93;6.43;;;14.80;92.40;;;;;;5019586;28;20181;-88
2023/05/15 07:15:21;;;;;;;6.87;6.33;;;15.00;90.50;;;;;;5036946;28;20183;-88
2023/05/15 07:17:47;;;;;;;6.53;6.03;;;15.00;89.00;;;;;;5037284;28;20569;-88
2023/05/15 07:20:12;;;;;;;6.50;5.93;;;15.10;89.30;;;;;;5039791;28;20196;-89
2023/05/15 07:22:38;;;;;;;7.73;6.70;;;15.10;90.30;;;;;;5038982;28;20238;-88
2023/05/15 07:25:05;;;;;;;6.00;5.50;;;15.10;89.90;;;;;;5038802;28;20239;-88
2023/05/15 07:27:31;;;;;;;6.43;5.83;;;15.00;89.90;;;;;;5036479;28;20188;-89
2023/05/15 07:29:56;;;;;;;7.13;6.53;;;15.10;91.50;;;;;;5037255;28;20255;-88
2023/05/15 07:32:22;;;;;;;6.60;5.87;;;15.40;89.20;;;;;;5037337;28;20188;-88
2023/05/15 07:34:48;;;;;;;6.73;6.03;;;15.60;89.30;;;;;;5036256;28;20193;-88
2023/05/15 07:37:13;;;;;;;6.57;6.10;;;15.60;88.80;;;;;;5016829;28;20707;-88
2023/05/15 07:39:39;;;;;;;6.10;5.70;;;15.70;86.40;;;;;;5034794;28;20203;-90
2023/05/15 07:42:05;;;;;;;6.77;6.20;;;15.70;86.60;;;;;;5035368;28;20855;-88
2023/05/15 07:44:31;;;;;;;6.67;6.13;;;16.00;85.00;;;;;;5035917;28;20200;-88
2023/05/15 07:46:57;;;;;;;6.67;6.07;;;16.00;85.80;;;;;;5035560;28;20266;-87
2023/05/15 07:49:23;;;;;;;7.30;6.70;;;16.20;85.10;;;;;;5033910;28;20203;-88
2023/05/15 07:51:48;;;;;;;6.63;5.97;;;16.40;82.20;;;;;;5034843;28;20256;-88
2023/05/15 07:54:14;;;;;;;7.40;6.73;;;16.30;83.10;;;;;;5035024;28;20203;-89
2023/05/15 07:56:40;;;;;;;6.30;5.90;;;16.30;83.20;;;;;;5034453;28;20648;-90
2023/05/15 07:59:06;;;;;;;6.33;5.80;;;16.50;81.90;;;;;;5034906;28;20186;-88
2023/05/15 08:01:32;;;;;;;10.93;6.57;;;16.60;79.90;;;;;;5034116;28;20202;-88
2023/05/15 08:03:58;;;;;;;6.17;5.77;;;16.70;80.20;;;;;;5034716;28;20286;-88
2023/05/15 08:06:23;;;;;;;6.83;6.20;;;16.70;76.10;;;;;;5037532;28;20258;-87
2023/05/15 08:08:49;;;;;;;6.90;6.37;;;16.70;77.80;;;;;;5036608;28;20230;-88
2023/05/15 08:11:15;;;;;;;5.90;5.40;;;16.70;79.30;;;;;;5037488;28;20188;-86
2023/05/15 08:13:40;;;;;;;7.03;6.43;;;16.80;78.90;;;;;;5037963;28;20205;-85
2023/05/15 08:16:06;;;;;;;6.70;6.10;;;16.80;79.10;;;;;;5037712;28;20177;-86
2023/05/15 08:18:32;;;;;;;6.70;6.20;;;16.90;80.90;;;;;;5037724;28;20184;-83
2023/05/15 08:20:57;;;;;;;6.30;5.80;;;17.10;74.60;;;;;;5036947;28;20198;-88
2023/05/15 08:23:23;;;;;;;6.47;5.10;;;17.10;78.10;;;;;;5040135;28;20227;-88
2023/05/15 08:25:48;;;;;;;6.47;5.90;;;17.20;76.30;;;;;;5020815;28;20256;-88
2023/05/15 08:28:14;;;;;;;6.70;6.10;;;17.40;73.60;;;;;;5036164;28;20201;-88
2023/05/15 08:30:40;;;;;;;6.07;5.67;;;17.40;74.40;;;;;;5037008;28;20255;-88
2023/05/15 08:33:05;;;;;;;5.93;5.33;;;17.40;73.90;;;;;;5035558;28;20198;-89
2023/05/15 08:35:31;;;;;;;5.97;5.47;;;17.50;75.50;;;;;;5027014;28;20197;-88
2023/05/15 08:37:57;;;;;;;6.43;5.83;;;17.60;72.30;;;;;;5023591;28;20283;-89
2023/05/15 08:40:23;;;;;;;6.00;5.57;;;17.70;69.90;;;;;;5026850;28;20220;-88
2023/05/15 08:42:54;;;;;;;6.13;5.53;;;17.80;69.70;;;;;;5025793;28;20222;-89
2023/05/15 08:45:20;;;;;;;7.23;6.60;;;18.10;69.80;;;;;;5026398;28;20205;-87
2023/05/15 08:47:46;;;;;;;15.75;7.80;;;18.20;67.50;;;;;;5025263;28;20186;-89
2023/05/15 08:50:14;;;;;;;6.87;6.37;;;18.20;69.10;;;;;;5025515;28;20368;-88
2023/05/15 08:52:46;;;;;;;6.97;6.37;;;18.00;69.90;;;;;;5027100;28;20188;-87
2023/05/15 08:55:13;;;;;;;7.00;6.50;;;18.20;70.00;;;;;;5028301;28;20219;-89
2023/05/15 08:57:40;;;;;;;7.03;6.43;;;18.40;69.70;;;;;;5024868;28;20187;-88
2023/05/15 09:00:07;;;;;;;6.40;5.90;;;18.60;66.80;;;;;;5026416;28;20226;-89
2023/05/15 09:02:37;;;;;;;6.63;6.00;;;18.80;69.00;;;;;;5026615;28;20184;-88
2023/05/15 09:05:04;;;;;;;7.38;6.82;;;19.00;67.60;;;;;;5032603;28;20224;-88
2023/05/15 09:07:30;;;;;;;7.43;6.78;;;18.90;66.00;;;;;;5034854;28;20208;-87
2023/05/15 09:09:57;;;;;;;6.38;5.97;;;18.80;69.00;;;;;;5035841;28;20216;-88
2023/05/15 09:12:24;;;;;;;6.50;6.00;;;19.10;64.70;;;;;;5036650;28;20176;-88
2023/05/15 09:14:50;;;;;;;6.28;5.88;;;19.00;66.20;;;;;;5035046;28;20218;-88
2023/05/15 09:17:15;;;;;;;6.63;6.13;;;19.00;65.30;;;;;;5035185;28;20219;-88
2023/05/15 09:19:43;;;;;;;6.68;6.13;;;19.10;65.60;;;;;;5033752;28;20258;-87
2023/05/15 09:22:23;;;;;;;5.95;5.55;;;19.40;64.90;;;;;;5035722;28;20312;-90
2023/05/15 09:24:51;;;;;;;5.95;5.45;;;19.40;64.60;;;;;;5017012;28;20336;-88
2023/05/15 09:27:16;;;;;;;6.15;5.72;;;19.50;63.50;;;;;;5035154;28;20187;-88
2023/05/15 09:29:42;;;;;;;5.93;4.93;;;19.80;59.10;;;;;;5033831;28;20264;-88
2023/05/15 09:32:10;;;;;;;6.03;5.63;;;20.10;59.20;;;;;;5035337;28;20240;-88
2023/05/15 09:34:38;;;;;;;6.25;5.75;;;19.90;60.40;;;;;;5038235;28;20200;-88
2023/05/15 09:37:06;;;;;;;5.50;5.10;;;20.00;60.70;;;;;;5038784;28;20192;-88
2023/05/15 09:39:32;;;;;;;5.63;5.10;;;20.30;60.00;;;;;;5039879;28;20590;-88
2023/05/15 09:42:12;;;;;;;6.18;5.75;;;20.30;57.80;;;;;;5037730;28;20506;-88
2023/05/15 09:44:42;;;;;;;5.35;4.95;;;20.30;54.90;;;;;;5040179;28;20353;-89
2023/05/15 09:47:09;;;;;;;5.13;4.78;;;20.20;54.70;;;;;;5040166;28;20177;-88
2023/05/15 09:49:35;;;;;;;6.15;5.28;;;20.40;57.40;;;;;;5038750;28;20205;-88
2023/05/15 09:52:01;;;;;;;5.80;5.40;;;21.00;53.40;;;;;;5036742;28;20243;-89
2023/05/15 09:54:28;;;;;;;5.30;4.90;;;21.20;52.20;;;;;;5040471;28;20234;-88
2023/05/15 09:56:55;;;;;;;5.53;5.20;;;21.50;50.80;;;;;;5039375;28;20181;-88
2023/05/15 09:59:21;;;;;;;5.90;5.50;;;21.40;50.70;;;;;;5041160;28;20230;-88
2023/05/15 10:01:50;;;;;;;5.55;5.22;;;21.30;51.50;;;;;;5041030;28;20577;-89
2023/05/15 10:04:16;;;;;;;5.85;5.53;;;21.70;47.00;;;;;;5040769;28;20279;-89
2023/05/15 10:06:45;;;;;;;5.82;5.38;;;22.10;45.40;;;;;;5039990;28;20295;-90
2023/05/15 10:09:13;;;;;;;5.40;5.00;;;22.10;45.60;;;;;;5040659;28;20208;-87
2023/05/15 10:11:44;;;;;;;5.80;5.40;;;21.90;47.70;;;;;;5021797;28;20264;-87
2023/05/15 10:14:12;;;;;;;6.03;5.63;;;22.30;48.00;;;;;;5039593;28;20202;-89
2023/05/15 10:16:39;;;;;;;5.90;5.50;;;22.50;44.80;;;;;;5021729;28;20268;-89
2023/05/15 10:19:07;;;;;;;6.20;5.70;;;22.80;44.20;;;;;;5022538;28;20200;-91
2023/05/15 10:21:35;;;;;;;6.45;6.00;;;23.00;45.40;;;;;;5040256;28;20181;-89
2023/05/15 10:24:03;;;;;;;6.57;6.07;;;23.00;44.50;;;;;;5039735;28;20240;-89
2023/05/15 10:26:37;;;;;;;6.00;5.65;;;23.40;41.60;;;;;;5021849;28;20181;-89
2023/05/15 10:29:10;;;;;;;5.75;5.40;;;23.60;42.70;;;;;;5038146;28;20189;-90
2023/05/15 10:31:36;;;;;;;6.28;5.88;;;22.90;43.70;;;;;;5038269;28;20161;-89
2023/05/15 10:34:03;;;;;;;6.00;5.60;;;22.70;44.20;;;;;;5037788;28;20251;-89
2023/05/15 10:36:31;;;;;;;6.03;5.63;;;23.10;43.80;;;;;;5039315;28;20191;-90
2023/05/15 10:38:59;;;;;;;5.65;5.28;;;23.30;44.10;;;;;;5021712;28;20189;-89
2023/05/15 10:41:28;;;;;;;6.60;6.20;;;23.90;41.90;;;;;;5038738;28;20196;-90
2023/05/15 10:43:56;;;;;;;6.60;6.20;;;24.50;41.90;;;;;;5037577;28;20193;-89
2023/05/15 10:46:22;;;;;;;6.88;6.22;;;23.80;44.40;;;;;;5038287;28;20388;-90
2023/05/15 10:48:50;;;;;;;6.45;6.00;;;22.80;47.70;;;;;;5036816;28;20185;-89
2023/05/15 10:51:27;;;;;;;21.02;6.22;;;22.50;48.50;;;;;;5037311;28;20283;-88
2023/05/15 10:53:54;;;;;;;7.88;4.07;;;22.70;41.90;;;;;;5038625;28;20414;-89
2023/05/15 10:56:20;;;;;;;6.20;3.95;;;22.30;43.10;;;;;;5039562;28;20226;-90
2023/05/15 10:58:47;;;;;;;7.00;3.63;;;22.10;45.10;;;;;;5039666;28;20212;-90
2023/05/15 11:01:26;;;;;;;3.75;3.45;;;21.70;44.60;;;;;;5039515;28;20188;-90
2023/05/15 11:04:09;;;;;;;3.30;3.10;;;21.40;46.50;;;;;;5039833;28;20207;-89
2023/05/15 11:06:36;;;;;;;3.10;2.90;;;21.30;47.70;;;;;;5039467;28;20269;-89
2023/05/15 11:09:20;;;;;;;6.85;3.40;;;21.00;48.00;;;;;;5039740;28;20206;-89
2023/05/15 11:11:54;;;;;;;3.97;3.17;;;20.50;47.70;;;;;;5032344;28;20174;-90
2023/05/15 11:14:21;;;;;;;5.30;2.72;;;20.20;49.60;;;;;;5019437;28;20198;-89
2023/05/15 11:16:53;;;;;;;3.10;2.90;;;20.00;49.40;;;;;;5019738;28;20652;-89
2023/05/15 11:19:28;;;;;;;6.18;2.80;;;19.70;51.90;;;;;;5019479;28;20190;-83
2023/05/15 11:22:06;;;;;;;7.68;3.13;;;19.50;55.80;;;;;;5028313;28;20172;-82
2023/05/15 11:25:05;;;;;;;2.70;2.60;;;19.50;64.10;;;;;;5031386;28;20284;-90
2023/05/15 11:27:39;;;;;;;2.90;2.70;;;19.30;61.80;;;;;;5038619;28;20177;-90
2023/05/15 11:30:23;;;;;;;3.00;2.70;;;19.30;66.00;;;;;;5037090;28;20226;-90
2023/05/15 11:32:57;;;;;;;2.88;2.67;;;19.00;67.40;;;;;;5038545;28;20623;-90
2023/05/15 11:35:31;;;;;;;3.03;2.78;;;18.80;68.80;;;;;;5037853;28;20173;-89
2023/05/15 11:38:09;;;;;;;4.47;3.33;;;18.90;71.00;;;;;;5038023;28;20193;-89
2023/05/15 11:40:57;;;;;;;3.92;3.28;;;19.10;71.00;;;;;;5035237;28;20434;-90
2023/05/15 11:43:34;;;;;;;3.65;3.38;;;18.90;68.00;;;;;;5035077;28;20247;-89
2023/05/15 11:46:07;;;;;;;3.42;3.13;;;18.80;66.10;;;;;;5031301;28;20196;-89
2023/05/15 11:48:34;;;;;;;3.67;3.38;;;18.70;70.20;;;;;;5037751;28;20176;-89
2023/05/15 11:51:01;;;;;;;3.60;3.30;;;18.90;68.70;;;;;;5018488;28;20606;-89
2023/05/15 11:53:31;;;;;;;3.78;3.28;;;19.10;67.30;;;;;;5035661;28;20197;-88
2023/05/15 11:55:57;;;;;;;4.88;4.57;;;19.40;65.60;;;;;;5034507;28;20181;-89
2023/05/15 11:58:24;;;;;;;3.17;2.97;;;19.50;64.80;;;;;;5036719;28;20593;-91
2023/05/15 12:00:51;;;;;;;3.20;3.00;;;19.30;60.60;;;;;;5036827;28;20185;-90
2023/05/15 12:03:25;;;;;;;2.90;2.80;;;19.50;63.80;;;;;;5019431;28;20660;-90
2023/05/15 12:05:52;;;;;;;3.20;3.00;;;19.60;55.60;;;;;;5018257;28;20704;-90
2023/05/15 12:08:20;;;;;;;3.70;3.40;;;19.90;57.80;;;;;;5024740;28;20666;-90
2023/05/15 12:10:46;;;;;;;3.33;3.10;;;20.20;62.80;;;;;;5024950;28;20700;-90
2023/05/15 12:13:13;;;;;;;3.28;3.08;;;20.50;55.60;;;;;;5021741;28;20213;-90
2023/05/15 12:15:48;;;;;;;3.72;3.42;;;20.60;54.80;;;;;;5021282;28;20629;-90
2023/05/15 12:18:13;;;;;;;3.72;3.42;;;20.50;59.50;;;;;;5026364;28;20608;-89
2023/05/15 12:20:46;;;;;;;3.45;3.25;;;20.40;62.00;;;;;;5026209;28;20192;-92
2023/05/15 12:23:15;;;;;;;3.58;3.28;;;21.10;59.30;;;;;;5024600;28;20406;-91
2023/05/15 12:25:43;;;;;;;3.60;3.30;;;21.40;50.60;;;;;;5024075;28;20204;-91
2023/05/15 12:28:10;;;;;;;3.75;3.45;;;21.80;51.20;;;;;;5026327;28;20231;-90
2023/05/15 12:30:36;;;;;;;3.53;3.30;;;22.50;51.80;;;;;;5023563;28;20221;-90
2023/05/15 12:33:07;;;;;;;3.80;3.60;;;22.70;48.40;;;;;;5023854;28;20189;-91
2023/05/15 12:35:34;;;;;;;3.92;3.63;;;22.50;45.20;;;;;;5023146;28;20470;-90
2023/05/15 12:38:03;;;;;;;3.53;3.33;;;22.80;43.80;;;;;;5023316;28;20525;-90
2023/05/15 12:40:31;;;;;;;3.90;3.70;;;23.00;45.80;;;;;;5020240;28;20289;-89
2023/05/15 12:42:57;;;;;;;3.92;3.72;;;23.10;41.70;;;;;;5007057;28;20208;-90
2023/05/15 12:45:25;;;;;;;4.38;3.72;;;23.30;44.50;;;;;;5022395;28;20184;-91
2023/05/15 12:47:50;;;;;;;4.00;3.80;;;23.70;42.80;;;;;;5021587;28;20548;-91
2023/05/15 12:50:21;;;;;;;4.05;3.80;;;23.90;42.90;;;;;;5026244;28;20220;-90